LSZL

Locarno Airport

Locarno, Switzerland
TAF LSZL 161725Z 1618/1703 VRB03KT 9999 FEW020 SCT030 BKN045 TEMPO 1618/1620 SHRA SCT040TCU PROB40 TEMPO 1618/1620 27015G25KT 4500 TSRA SCT040CB
Issued Valid From Valid To
Jul-16 @ 17:25 UTC
(3 hours ago)
Jul-16 @ 18:00 UTC
(2 hours ago)
Jul-17 @ 03:00 UTC
(in 7 hours)
Jul-16 @ 18:00 to Jul-17 @ 03:00
TAF LSZL 161725Z 1618/1703 VRB03KT 9999 FEW020 SCT030 BKN045
Wind Visibility Clouds
Variable at 3 knots 10,000+ meters
  • Few at 2,000' AGL
  • Scattered at 3,000' AGL
  • Broken at 4,500' AGL
Expired Click to View Jul-16 @ 18:00 to Jul-16 @ 20:00
TEMPO 1618/1620 SHRA SCT040TCU
Clouds Conditions
  • Scattered at 4,000' AGL
  • Rain
Expired Click to View Jul-16 @ 18:00 to Jul-16 @ 20:00
PROB40 TEMPO 1618/1620 27015G25KT 4500 TSRA SCT040CB
Wind Visibility Clouds Conditions
270° at 15 knots
 Gusting to 25 knots
4,506 meters
  • Scattered at 4,000' AGL
  • Thunderstorm
  • Rain
TAF LSZL 161725Z 1618/1703 VRB03KT 9999 FEW020 SCT030 BKN045 TEMPO 1618/1620 SHRA SCT040TCU PROB40 TEMPO 1618/1620 27015G25KT 4500 TSRA SCT040CB
Issued Jul-16 @ 17:25 UTC
(3 hours ago)
Valid From Jul-16 @ 18:00 UTC
(2 hours ago)
Valid To Jul-17 @ 03:00 UTC
(in 7 hours)
Jul-16 @ 18:00 - Jul-17 @ 03:00
Wind Visibility
Variable at 3 knots 10,000+ meters
Clouds
  • Few at 2,000' AGL
  • Scattered at 3,000' AGL
  • Broken at 4,500' AGL
Jul-16 @ 18:00 - Jul-16 @ 20:00
Clouds
  • Scattered at 4,000' AGL
Conditions
  • Rain
Jul-16 @ 18:00 - Jul-16 @ 20:00
Wind Visibility
270° at 15 knots
 Gusting to 25 knots
4,506 meters
Clouds
  • Scattered at 4,000' AGL
Conditions
  • Thunderstorm
  • Rain